createdAt,value
2019-05-02T00:00:03.407Z,32.60
2019-05-02T00:02:32.515Z,31.37
2019-05-02T00:05:00.192Z,32.60
2019-05-02T00:07:27.870Z,34.77
2019-05-02T00:09:55.199Z,34.83
2019-05-02T00:12:23.213Z,33.20
2019-05-02T00:14:50.529Z,34.97
2019-05-02T00:17:20.315Z,33.60
2019-05-02T00:19:50.009Z,34.73
2019-05-02T00:22:17.251Z,35.93
2019-05-02T00:24:45.027Z,35.77
2019-05-02T00:27:12.484Z,35.27
2019-05-02T00:29:39.794Z,31.67
2019-05-02T00:32:07.437Z,33.07
2019-05-02T00:34:34.883Z,33.67
2019-05-02T00:37:02.264Z,34.10
2019-05-02T00:39:29.664Z,35.10
2019-05-02T00:41:56.983Z,31.97
2019-05-02T00:44:24.354Z,32.80
2019-05-02T00:46:52.165Z,31.70
2019-05-02T00:49:19.478Z,32.47
2019-05-02T00:51:46.875Z,31.53
2019-05-02T00:54:14.299Z,31.23
2019-05-02T00:56:44.036Z,30.23
2019-05-02T00:59:10.614Z,29.27
2019-05-02T01:01:42.360Z,29.83
2019-05-02T01:04:23.343Z,29.43
2019-05-02T01:06:50.783Z,29.17
2019-05-02T01:09:18.215Z,29.87
2019-05-02T01:11:45.571Z,28.67
2019-05-02T01:14:12.903Z,30.77
2019-05-02T01:16:40.227Z,28.63
2019-05-02T01:19:07.569Z,27.20
2019-05-02T01:21:38.963Z,28.13
2019-05-02T01:24:04.392Z,28.83
2019-05-02T01:26:33.503Z,28.57
2019-05-02T01:29:14.459Z,28.57
2019-05-02T01:31:49.936Z,29.10
2019-05-02T01:34:22.747Z,26.93
2019-05-02T01:37:06.867Z,28.97
2019-05-02T01:39:37.924Z,29.67
2019-05-02T01:42:04.252Z,30.90
2019-05-02T01:44:36.442Z,32.37
2019-05-02T01:47:01.201Z,31.23
2019-05-02T01:49:28.544Z,32.53
2019-05-02T01:51:56.147Z,33.80
2019-05-02T01:54:23.499Z,34.63
2019-05-02T01:56:50.938Z,33.17
2019-05-02T01:59:18.893Z,33.20
2019-05-02T02:01:46.322Z,32.67
2019-05-02T02:04:16.134Z,32.40
2019-05-02T02:06:43.279Z,30.87
2019-05-02T02:09:11.840Z,31.13
2019-05-02T02:11:39.247Z,31.33
2019-05-02T02:14:07.330Z,28.27
2019-05-02T02:16:39.302Z,30.07
2019-05-02T02:19:24.457Z,31.17
2019-05-02T02:22:05.276Z,29.53
2019-05-02T02:24:49.581Z,28.93
2019-05-02T02:27:19.871Z,29.47
2019-05-02T02:29:45.881Z,28.67
2019-05-02T02:32:13.420Z,30.07
2019-05-02T02:34:40.747Z,29.53
2019-05-02T02:37:13.011Z,29.43
2019-05-02T02:39:37.072Z,27.37
2019-05-02T02:42:04.392Z,28.00
2019-05-02T02:44:39.413Z,25.77
2019-05-02T02:47:02.756Z,26.93
2019-05-02T02:49:30.046Z,26.37
2019-05-02T02:52:04.604Z,26.47
2019-05-02T02:54:26.450Z,26.10
2019-05-02T02:56:53.806Z,25.83
2019-05-02T02:59:26.223Z,26.13
2019-05-02T03:01:50.101Z,25.20
2019-05-02T03:04:17.526Z,25.03
2019-05-02T03:06:47.114Z,24.70
2019-05-02T03:09:13.845Z,23.87
2019-05-02T03:11:56.356Z,25.87
2019-05-02T03:14:22.782Z,24.13
2019-05-02T03:16:50.093Z,23.57
2019-05-02T03:19:21.479Z,23.50
2019-05-02T03:22:00.783Z,23.50
2019-05-02T03:24:24.979Z,22.87
2019-05-02T03:26:55.128Z,22.20
2019-05-02T03:29:21.358Z,22.97
2019-05-02T03:31:48.846Z,23.57
2019-05-02T03:34:16.357Z,22.13
2019-05-02T03:36:43.667Z,22.30
2019-05-02T03:39:14.938Z,21.83
2019-05-02T03:41:40.143Z,23.60
2019-05-02T03:44:12.367Z,24.00
2019-05-02T03:46:36.530Z,21.43
2019-05-02T03:49:07.372Z,22.10
2019-05-02T03:51:32.843Z,23.30
2019-05-02T03:54:07.766Z,21.43
2019-05-02T03:56:29.229Z,22.63
2019-05-02T03:58:58.185Z,21.40
2019-05-02T04:01:25.740Z,22.10
2019-05-02T04:03:53.093Z,21.43
2019-05-02T04:06:23.383Z,21.43
2019-05-02T04:08:58.732Z,20.20
2019-05-02T04:11:19.016Z,21.03
2019-05-02T04:13:46.587Z,20.83
2019-05-02T04:16:15.372Z,20.03
2019-05-02T04:18:54.446Z,19.13
2019-05-02T04:21:11.917Z,18.53
2019-05-02T04:23:39.260Z,18.17
2019-05-02T04:26:12.103Z,17.10
2019-05-02T04:28:35.584Z,15.60
2019-05-02T04:31:02.936Z,15.60
2019-05-02T04:33:34.719Z,15.23
2019-05-02T04:35:59.758Z,14.73
2019-05-02T04:38:41.755Z,14.53
2019-05-02T04:40:58.985Z,13.23
2019-05-02T04:43:25.076Z,14.23
2019-05-02T04:45:56.431Z,13.20
2019-05-02T04:48:21.410Z,14.90
2019-05-02T04:50:51.778Z,13.73
2019-05-02T04:53:18.927Z,12.63
2019-05-02T04:55:52.034Z,12.90
2019-05-02T04:58:24.292Z,12.20
2019-05-02T05:00:45.130Z,12.97
2019-05-02T05:03:15.437Z,12.47
2019-05-02T05:05:42.499Z,12.37
2019-05-02T05:08:09.893Z,12.27
2019-05-02T05:10:41.355Z,11.80
2019-05-02T05:13:07.772Z,12.20
2019-05-02T05:15:41.240Z,12.00
2019-05-02T05:18:04.629Z,10.93
2019-05-02T05:20:33.431Z,12.13
2019-05-02T05:23:00.781Z,10.97
2019-05-02T05:25:32.610Z,12.57
2019-05-02T05:28:05.556Z,11.77
2019-05-02T05:30:28.940Z,11.17
2019-05-02T05:32:58.278Z,12.47
2019-05-02T05:35:28.130Z,11.93
2019-05-02T05:37:54.403Z,11.90
2019-05-02T05:40:22.748Z,12.33
2019-05-02T05:42:50.723Z,11.30
2019-05-02T05:45:18.080Z,13.10
2019-05-02T05:47:45.402Z,13.77
2019-05-02T05:50:12.757Z,14.33
2019-05-02T05:52:42.443Z,14.40
2019-05-02T05:55:12.730Z,14.47
2019-05-02T05:57:38.544Z,14.47
2019-05-02T06:00:11.442Z,14.23
2019-05-02T06:02:50.907Z,14.80
2019-05-02T06:05:07.934Z,14.67
2019-05-02T06:07:41.886Z,14.93
2019-05-02T06:10:07.836Z,15.83
2019-05-02T06:12:35.573Z,14.47
2019-05-02T06:15:03.783Z,15.57
2019-05-02T06:17:31.283Z,15.20
2019-05-02T06:19:58.899Z,17.07
2019-05-02T06:22:26.289Z,15.67
2019-05-02T06:24:53.901Z,16.07
2019-05-02T06:27:25.986Z,16.30
2019-05-02T06:29:51.201Z,16.37
2019-05-02T06:32:20.630Z,16.63
2019-05-02T06:34:48.166Z,16.87
2019-05-02T06:37:15.535Z,16.57
2019-05-02T06:39:42.856Z,19.47
2019-05-02T06:42:10.319Z,17.87
2019-05-02T06:44:37.709Z,18.10
2019-05-02T06:47:05.704Z,18.17
2019-05-02T06:49:33.143Z,16.03
2019-05-02T06:52:00.556Z,18.27
2019-05-02T06:54:27.921Z,17.83
2019-05-02T06:56:55.269Z,17.70
2019-05-02T06:59:22.651Z,16.97
2019-05-02T07:01:52.402Z,17.37
2019-05-02T07:04:22.878Z,15.80
2019-05-02T07:06:58.319Z,17.03
2019-05-02T07:09:17.206Z,16.87
2019-05-02T07:11:56.654Z,16.07
2019-05-02T07:14:14.150Z,16.30
2019-05-02T07:17:00.721Z,16.03
2019-05-02T07:19:32.323Z,14.63
2019-05-02T07:22:04.071Z,15.13
2019-05-02T07:24:30.708Z,15.33
2019-05-02T07:26:58.203Z,15.23
2019-05-02T07:29:25.609Z,15.03
2019-05-02T07:31:53.652Z,13.20
2019-05-02T07:34:21.091Z,13.07
2019-05-02T07:36:48.424Z,12.67
2019-05-02T07:39:15.845Z,12.70
2019-05-02T07:41:44.096Z,11.73
2019-05-02T07:44:11.509Z,12.73
2019-05-02T07:46:51.253Z,12.47
2019-05-02T07:49:07.896Z,11.87
2019-05-02T07:51:35.252Z,12.20
2019-05-02T07:54:02.600Z,12.10
2019-05-02T07:56:29.936Z,12.23
2019-05-02T07:58:57.280Z,12.53
2019-05-02T08:01:24.629Z,14.00
2019-05-02T08:03:51.988Z,12.33
2019-05-02T08:06:19.371Z,12.13
2019-05-02T08:08:46.966Z,13.40
2019-05-02T08:11:14.284Z,13.00
2019-05-02T08:13:41.626Z,13.83
2019-05-02T08:16:08.946Z,13.70
2019-05-02T08:18:37.207Z,12.97
2019-05-02T08:21:04.536Z,14.57
2019-05-02T08:23:31.918Z,13.50
2019-05-02T08:25:59.232Z,14.30
2019-05-02T08:28:34.200Z,14.47
2019-05-02T08:31:01.566Z,13.73
2019-05-02T08:33:34.378Z,16.20
2019-05-02T08:35:57.871Z,17.37
2019-05-02T08:38:25.217Z,15.43
2019-05-02T08:40:52.570Z,15.57
2019-05-02T08:43:19.900Z,15.23
2019-05-02T08:45:47.396Z,16.40
2019-05-02T08:48:14.784Z,16.60
2019-05-02T08:50:42.193Z,14.90
2019-05-02T08:53:09.580Z,15.53
2019-05-02T08:55:41.344Z,14.80
2019-05-02T08:58:12.630Z,15.43
2019-05-02T09:00:37.613Z,15.07
2019-05-02T09:03:04.774Z,13.97
2019-05-02T09:05:36.952Z,13.73
2019-05-02T09:08:01.312Z,12.63
2019-05-02T09:10:28.648Z,12.07
2019-05-02T09:12:56.000Z,11.60
2019-05-02T09:15:23.401Z,13.60
2019-05-02T09:17:56.308Z,12.50
2019-05-02T09:20:21.442Z,12.80
2019-05-02T09:22:54.112Z,12.90
2019-05-02T09:25:17.951Z,13.97
2019-05-02T09:27:45.320Z,11.97
2019-05-02T09:30:17.127Z,13.37
2019-05-02T09:32:41.980Z,12.90
2019-05-02T09:35:11.525Z,14.93
2019-05-02T09:37:38.447Z,14.70
2019-05-02T09:40:06.770Z,12.97
2019-05-02T09:42:35.226Z,13.80
2019-05-02T09:45:03.198Z,14.03
2019-05-02T09:47:36.941Z,14.50
2019-05-02T09:50:20.515Z,12.67
2019-05-02T09:52:45.665Z,13.87
2019-05-02T09:55:14.248Z,13.13
2019-05-02T09:57:42.787Z,12.73
2019-05-02T10:00:13.154Z,13.37
2019-05-02T10:02:41.884Z,13.60
2019-05-02T10:05:09.331Z,13.40
2019-05-02T10:07:36.674Z,12.30
2019-05-02T10:10:06.734Z,12.10
2019-05-02T10:12:34.114Z,12.33
2019-05-02T10:15:02.358Z,12.20
2019-05-02T10:17:32.067Z,12.97
2019-05-02T10:19:58.908Z,11.63
2019-05-02T10:22:31.040Z,11.23
2019-05-02T10:24:55.468Z,11.13
2019-05-02T10:27:22.813Z,11.20
2019-05-02T10:29:52.299Z,10.70
2019-05-02T10:32:19.231Z,10.77
2019-05-02T10:34:47.537Z,12.87
2019-05-02T10:37:15.559Z,10.10
2019-05-02T10:39:42.944Z,9.90
2019-05-02T10:42:12.377Z,10.03
2019-05-02T10:44:39.252Z,9.90
2019-05-02T10:47:06.736Z,9.37
2019-05-02T10:49:47.628Z,8.53
2019-05-02T10:52:14.942Z,9.57
2019-05-02T10:54:42.287Z,8.60
2019-05-02T10:57:09.963Z,8.87
2019-05-02T10:59:37.310Z,8.97
2019-05-02T11:02:06.312Z,9.23
2019-05-02T11:04:35.290Z,10.23
2019-05-02T11:07:02.781Z,9.17
2019-05-02T11:09:31.867Z,7.17
2019-05-02T11:11:59.597Z,7.77
2019-05-02T11:14:28.573Z,7.17
2019-05-02T11:16:57.711Z,7.37
2019-05-02T11:19:29.427Z,8.07
2019-05-02T11:21:59.147Z,8.87
2019-05-02T11:24:25.739Z,9.53
2019-05-02T11:26:53.091Z,9.67
2019-05-02T11:29:20.414Z,9.77
2019-05-02T11:31:47.777Z,9.57
2019-05-02T11:34:15.141Z,9.83
2019-05-02T11:36:42.461Z,9.17
2019-05-02T11:39:19.242Z,9.43
2019-05-02T11:41:38.801Z,9.87
2019-05-02T11:44:06.131Z,10.23
2019-05-02T11:46:37.500Z,10.70
2019-05-02T11:49:02.737Z,9.77
2019-05-02T11:51:32.427Z,9.73
2019-05-02T11:54:04.220Z,9.60
2019-05-02T11:56:28.297Z,9.50
2019-05-02T11:58:55.604Z,9.80
2019-05-02T12:01:35.783Z,9.93
2019-05-02T12:03:52.752Z,10.00
2019-05-02T12:06:22.296Z,9.47
2019-05-02T12:08:49.513Z,9.70
2019-05-02T12:11:17.836Z,9.47
2019-05-02T12:13:47.300Z,9.17
2019-05-02T12:16:14.695Z,9.97
2019-05-02T12:18:42.096Z,9.17
2019-05-02T12:21:09.513Z,10.27
2019-05-02T12:23:36.869Z,10.23
2019-05-02T12:26:04.526Z,9.43
2019-05-02T12:28:32.404Z,10.70
2019-05-02T12:30:59.801Z,9.73
2019-05-02T12:33:28.889Z,9.10
2019-05-02T12:35:56.214Z,10.40
2019-05-02T12:38:23.565Z,10.70
2019-05-02T12:40:52.035Z,9.53
2019-05-02T12:43:19.621Z,9.33
2019-05-02T12:45:46.957Z,8.77
2019-05-02T12:48:14.329Z,9.30
2019-05-02T12:50:41.978Z,9.90
2019-05-02T12:53:09.361Z,9.30
2019-05-02T12:55:36.719Z,9.80
2019-05-02T12:58:04.111Z,9.30
2019-05-02T13:00:32.023Z,9.53
2019-05-02T13:03:07.225Z,9.97
2019-05-02T13:05:34.834Z,9.30
2019-05-02T13:08:02.518Z,9.10
2019-05-02T13:10:32.704Z,8.73
2019-05-02T13:13:00.093Z,8.63
2019-05-02T13:15:27.982Z,9.73
2019-05-02T13:17:55.432Z,7.93
2019-05-02T13:20:24.896Z,8.50
2019-05-02T13:22:53.910Z,7.77
2019-05-02T13:25:27.225Z,8.30
2019-05-02T13:27:52.185Z,7.07
2019-05-02T13:30:24.077Z,6.23
2019-05-02T13:32:57.701Z,7.25
2019-05-02T13:35:26.806Z,6.57
2019-05-02T13:37:56.000Z,6.47
2019-05-02T13:40:24.980Z,6.10
2019-05-02T13:42:52.401Z,6.92
2019-05-02T13:45:21.758Z,6.55
2019-05-02T13:47:49.189Z,7.17
2019-05-02T13:50:16.512Z,7.10
2019-05-02T13:52:45.230Z,6.60
2019-05-02T13:55:14.708Z,6.05
2019-05-02T13:57:46.951Z,7.90
2019-05-02T14:00:12.807Z,7.00
2019-05-02T14:02:42.466Z,6.37
2019-05-02T14:05:09.959Z,6.80
2019-05-02T14:07:37.270Z,6.90
2019-05-02T14:10:07.891Z,6.83
2019-05-02T14:12:45.863Z,6.35
2019-05-02T14:15:13.882Z,6.17
2019-05-02T14:17:42.329Z,6.80
2019-05-02T14:20:11.555Z,6.17
2019-05-02T14:22:38.750Z,5.92
2019-05-02T14:25:06.080Z,6.50
2019-05-02T14:27:33.506Z,6.17
2019-05-02T14:30:02.406Z,6.13
2019-05-02T14:32:29.918Z,6.85
2019-05-02T14:34:58.875Z,6.80
2019-05-02T14:37:26.195Z,7.47
2019-05-02T14:39:55.252Z,6.75
2019-05-02T14:42:26.161Z,7.00
2019-05-02T14:45:05.551Z,6.10
2019-05-02T14:47:22.283Z,6.90
2019-05-02T14:49:49.720Z,6.00
2019-05-02T14:52:17.268Z,6.27
2019-05-02T14:54:47.945Z,6.47
2019-05-02T14:57:17.227Z,5.83
2019-05-02T14:59:44.244Z,6.62
2019-05-02T15:02:13.264Z,7.15
2019-05-02T15:04:44.587Z,6.90
2019-05-02T15:07:09.724Z,6.75
2019-05-02T15:09:37.120Z,6.93
2019-05-02T15:12:13.992Z,6.47
2019-05-02T15:14:33.736Z,6.58
2019-05-02T15:17:02.549Z,5.27
2019-05-02T15:19:30.324Z,5.70
2019-05-02T15:21:57.656Z,6.53
2019-05-02T15:24:27.681Z,5.57
2019-05-02T15:26:54.029Z,6.07
2019-05-02T15:29:25.147Z,6.10
2019-05-02T15:32:08.210Z,6.23
2019-05-02T15:34:46.265Z,6.37
2019-05-02T15:37:08.731Z,6.27
2019-05-02T15:42:05.258Z,6.97
2019-05-02T15:44:32.663Z,6.60
2019-05-02T15:47:03.470Z,5.83
2019-05-02T15:49:32.126Z,6.00
2019-05-02T15:51:59.548Z,6.27
2019-05-02T15:54:26.925Z,5.80
2019-05-02T15:57:00.699Z,5.80
2019-05-02T15:59:43.204Z,5.57
2019-05-02T16:02:06.193Z,5.90
2019-05-02T16:04:35.202Z,6.40
2019-05-02T16:07:06.925Z,7.00
2019-05-02T16:09:32.970Z,6.47
2019-05-02T16:12:00.349Z,7.20
2019-05-02T16:14:34.190Z,6.42
2019-05-02T16:16:56.831Z,6.87
2019-05-02T16:19:29.159Z,7.80
2019-05-02T16:22:06.298Z,6.87
2019-05-02T16:24:29.771Z,6.47
2019-05-02T16:26:57.395Z,6.83
2019-05-02T16:29:28.260Z,6.58
2019-05-02T16:31:59.793Z,6.47
2019-05-02T16:34:27.462Z,6.33
2019-05-02T16:36:57.753Z,6.47
2019-05-02T16:39:25.443Z,6.37
2019-05-02T16:41:53.011Z,6.27
2019-05-02T16:44:22.271Z,7.37
2019-05-02T16:46:49.607Z,6.33
2019-05-02T16:49:18.709Z,5.60
2019-05-02T16:51:45.872Z,6.40
2019-05-02T16:54:13.202Z,6.80
2019-05-02T16:56:42.394Z,6.37
2019-05-02T16:59:09.627Z,5.83
2019-05-02T17:01:37.215Z,5.43
2019-05-02T17:04:06.708Z,6.63
2019-05-02T17:06:34.737Z,6.60
2019-05-02T17:09:24.036Z,7.00
2019-05-02T17:11:52.320Z,7.53
2019-05-02T17:14:19.751Z,7.37
2019-05-02T17:16:51.427Z,7.73
2019-05-02T17:19:16.172Z,7.47
2019-05-02T17:21:53.166Z,7.53
2019-05-02T17:24:12.717Z,7.70
2019-05-02T17:26:40.159Z,8.20
2019-05-02T17:29:07.560Z,7.30
2019-05-02T17:31:35.003Z,7.90
2019-05-02T17:34:02.760Z,6.83
2019-05-02T17:36:32.390Z,6.23
2019-05-02T17:39:03.854Z,7.10
2019-05-02T17:41:28.495Z,7.23
2019-05-02T17:43:58.922Z,8.57
2019-05-02T17:46:25.944Z,7.73
2019-05-02T17:48:53.948Z,9.70
2019-05-02T17:51:33.944Z,9.97
2019-05-02T17:53:58.357Z,9.80
2019-05-02T17:56:25.747Z,13.10
2019-05-02T17:58:57.893Z,15.63
2019-05-02T18:01:26.485Z,15.70
2019-05-02T18:03:52.799Z,16.53
2019-05-02T18:06:30.806Z,15.20
2019-05-02T18:08:53.664Z,15.70
2019-05-02T18:11:18.220Z,14.37
2019-05-02T18:13:45.600Z,15.80
2019-05-02T18:16:16.643Z,16.47
2019-05-02T18:18:43.809Z,16.40
2019-05-02T18:21:12.692Z,18.23
2019-05-02T18:23:39.964Z,17.50
2019-05-02T18:26:07.333Z,15.80
2019-05-02T18:28:46.236Z,16.47
2019-05-02T18:31:05.808Z,14.77
2019-05-02T18:33:35.968Z,16.67
2019-05-02T18:36:02.012Z,17.27
2019-05-02T18:38:29.392Z,17.37
2019-05-02T18:41:00.391Z,15.17
2019-05-02T18:43:28.192Z,16.40
2019-05-02T18:45:58.158Z,16.70
2019-05-02T18:48:25.141Z,17.43
2019-05-02T18:50:52.780Z,16.07
2019-05-02T18:53:24.257Z,15.97
2019-05-02T18:55:49.153Z,19.23
2019-05-02T18:58:16.464Z,17.53
2019-05-02T19:00:43.801Z,17.00
2019-05-02T19:03:13.237Z,16.93
2019-05-02T19:05:42.078Z,16.77
2019-05-02T19:08:09.265Z,18.23
2019-05-02T19:10:37.065Z,16.97
2019-05-02T19:13:06.212Z,18.50
2019-05-02T19:15:34.618Z,22.10
2019-05-02T19:18:02.585Z,26.37
2019-05-02T19:20:32.573Z,21.33
2019-05-02T19:23:00.269Z,21.80
2019-05-02T19:25:27.688Z,19.30
2019-05-02T19:27:57.886Z,19.93
2019-05-02T19:30:27.645Z,18.77
2019-05-02T19:32:57.844Z,20.40
2019-05-02T19:35:24.055Z,19.30
2019-05-02T19:37:52.488Z,20.13
2019-05-02T19:40:26.951Z,19.40
2019-05-02T19:42:52.684Z,18.80
2019-05-02T19:45:21.720Z,18.60
2019-05-02T19:47:49.103Z,19.37
2019-05-02T19:50:32.283Z,18.63
2019-05-02T19:53:02.111Z,20.27
2019-05-02T19:55:27.497Z,20.07
2019-05-02T19:57:56.667Z,21.93
2019-05-02T20:00:24.052Z,21.13
2019-05-02T20:02:52.286Z,20.60
2019-05-02T20:05:21.921Z,19.80
2019-05-02T20:07:48.715Z,19.70
2019-05-02T20:10:17.876Z,19.27
2019-05-02T20:12:48.202Z,19.20
2019-05-02T20:15:17.030Z,19.70
2019-05-02T20:17:44.607Z,17.90
2019-05-02T20:20:35.909Z,18.17
2019-05-02T20:23:01.684Z,18.17
2019-05-02T20:25:37.351Z,19.20
2019-05-02T20:27:59.349Z,18.60
2019-05-02T20:30:26.677Z,19.30
2019-05-02T20:32:54.241Z,19.43
2019-05-02T20:35:22.685Z,17.10
2019-05-02T20:37:50.095Z,17.17
2019-05-02T20:40:25.052Z,16.17
2019-05-02T20:42:52.819Z,15.77
2019-05-02T20:45:20.266Z,16.90
2019-05-02T20:47:47.683Z,16.27
2019-05-02T20:50:15.043Z,16.07
2019-05-02T20:52:43.015Z,15.30
2019-05-02T20:55:12.149Z,15.77
2019-05-02T20:57:39.543Z,15.90
2019-05-02T21:00:07.822Z,16.73
2019-05-02T21:02:35.266Z,16.33
2019-05-02T21:05:02.876Z,16.93
2019-05-02T21:07:42.390Z,15.87
2019-05-02T21:10:12.533Z,15.70
2019-05-02T21:12:41.855Z,16.17
2019-05-02T21:15:09.029Z,16.40
2019-05-02T21:17:36.415Z,16.27
2019-05-02T21:20:05.237Z,15.90
2019-05-02T21:22:32.818Z,15.37
2019-05-02T21:25:02.334Z,15.30
2019-05-02T21:27:29.301Z,15.00
2019-05-02T21:29:56.715Z,15.00
2019-05-02T21:32:24.147Z,15.33
2019-05-02T21:34:51.986Z,14.10
2019-05-02T21:37:19.481Z,15.93
2019-05-02T21:39:47.103Z,15.43
2019-05-02T21:42:14.460Z,15.83
2019-05-02T21:44:42.236Z,14.57
2019-05-02T21:47:09.555Z,15.40
2019-05-02T21:49:38.547Z,16.13
2019-05-02T21:52:07.514Z,15.77
2019-05-02T21:54:42.419Z,15.80
2019-05-02T21:57:12.112Z,16.60
2019-05-02T21:59:39.637Z,15.17
2019-05-02T22:02:08.705Z,15.73
2019-05-02T22:04:36.157Z,15.90
2019-05-02T22:07:03.479Z,15.60
2019-05-02T22:09:32.382Z,17.10
2019-05-02T22:11:59.815Z,15.17
2019-05-02T22:14:27.261Z,15.73
2019-05-02T22:16:54.572Z,14.80
2019-05-02T22:19:21.923Z,14.77
2019-05-02T22:21:49.629Z,15.67
2019-05-02T22:24:16.974Z,14.27
2019-05-02T22:26:44.326Z,13.50
2019-05-02T22:29:12.349Z,13.73
2019-05-02T22:31:39.859Z,13.63
2019-05-02T22:34:07.213Z,14.23
2019-05-02T22:36:34.565Z,13.60
2019-05-02T22:39:06.483Z,14.07
2019-05-02T22:41:33.900Z,13.33
2019-05-02T22:44:01.907Z,13.40
2019-05-02T22:46:43.389Z,14.00
2019-05-02T22:49:11.538Z,14.37
2019-05-02T22:51:40.239Z,13.87
2019-05-02T22:54:07.580Z,14.63
2019-05-02T22:56:34.985Z,13.27
2019-05-02T22:59:02.803Z,14.13
2019-05-02T23:01:32.248Z,13.83
2019-05-02T23:03:59.129Z,13.13
2019-05-02T23:06:26.533Z,13.03
2019-05-02T23:08:54.217Z,13.93
2019-05-02T23:11:21.920Z,13.03
2019-05-02T23:13:51.768Z,12.87
2019-05-02T23:16:19.182Z,14.27
2019-05-02T23:18:46.576Z,13.53
2019-05-02T23:21:13.922Z,13.27
2019-05-02T23:23:41.779Z,14.00
2019-05-02T23:26:13.362Z,14.33
2019-05-02T23:28:42.407Z,12.80
2019-05-02T23:31:11.479Z,12.70
2019-05-02T23:33:57.074Z,13.70
2019-05-02T23:36:24.500Z,14.90
2019-05-02T23:38:52.180Z,13.77
2019-05-02T23:41:19.746Z,13.27
2019-05-02T23:43:47.183Z,14.37
2019-05-02T23:46:14.575Z,13.50
2019-05-02T23:48:42.038Z,13.10
2019-05-02T23:51:09.340Z,15.27
2019-05-02T23:53:36.720Z,14.13
2019-05-02T23:56:04.061Z,15.40
2019-05-02T23:58:32.024Z,14.30
